Levittown, PR

8:38 AM AST on March 31, 2015 (GMT -0400)
KP4MP DAVIS | | Change Station
CLOSE
Current Station
Personal Weather Station
Location: Sabana Seca, TOA BAJA
Elevation: 23 ft
Nearby Weather Stations

Elev 23 ft 18.44 °N, 66.18 °W | Updated 3 seconds ago

Scattered Clouds
Scattered Clouds
79.2 °F
Feels Like 82 °F
N
0.9
Wind Variable Wind from SE
Gusts 5.0 mph

Today
High -- | Low -- °F
--% Chance of Precip.
Yesterday
High -- | Low -- °F
Precip. -- in
6:19 AM 6:38 PM
Waxing Gibbous, 86% visible
Pressure 30.06 in
Visibility 10.0 miles
Clouds Few 3000 ft
Scattered Clouds 4200 ft
Heat Index 82 °F
Dew Point 69 °F
Humidity 71%
Rainfall 0.00 in
Snow Depth Not available.
UV 1 out of 12
Pollen Not available.
Air Quality Not available.
Flu Activity Not available.
METAR TJSJ 311156Z 00000KT 10SM FEW030 SCT042 25/21 A3006 RMK AO2 SLP178 T02500206 10250 20217 53020

More Conditions Fewer Conditions

Pressure 30.06 in
Visibility 10.0 miles
Clouds Few 3000 ft
Scattered Clouds 4200 ft
Heat Index 82 °F
Dew Point 69 °F
Humidity 71%
Rainfall 0.00 in
Snow Depth Not available.
UV 1 out of 12
Pollen Not available.
Air Quality Not available.
Flu Activity Not available.
METAR TJSJ 311156Z 00000KT 10SM FEW030 SCT042 25/21 A3006 RMK AO2 SLP178 T02500206 10250 20217 53020

More Conditions Fewer Conditions

10-Day Weather Forecast

Almanac

Astronomy

Mar. 31, 2015 Rise Set
Actual Time
Civil Twilight
Nautical Twilight
Astronomical Twilight
Moon
Length of Visible Light
Length of Day
Tomorrow will be .
, % of the Moon is Illuminated

Today's Extremes

State Highs State Lows

Community

WunderPhotos

Upload Photos

1,809,754 photos uploaded!

WunderBlogs® & News

Nearby

Air Quality

  Air Quality AQ Index Pollutant
Not available.

Snow Depth

Station Depth Elevation

Earthquake Activity

City Distance Mag. Time & Date
Minimum magnitude displayed is 2.5.

Coastal Water Temperatures

Place Temperature

Stations

Nearby Weather Stations

Station Location Temp. Windchill Dew Point Humidity Wind Precip. Elev Updated Type